sensor_id;sensor_type;location;lat;lon;timestamp;temperature;humidity
25983;DHT22;13773;48.868;10.730;2023-03-01T00:00:39;-2.10;99.90
25983;DHT22;13773;48.868;10.730;2023-03-01T00:03:05;-2.00;99.90
25983;DHT22;13773;48.868;10.730;2023-03-01T00:05:31;-1.90;99.90
25983;DHT22;13773;48.868;10.730;2023-03-01T00:07:58;-1.90;99.90
25983;DHT22;13773;48.868;10.730;2023-03-01T00:10:24;-1.90;99.90
25983;DHT22;13773;48.868;10.730;2023-03-01T00:12:49;-1.80;99.90
25983;DHT22;13773;48.868;10.730;2023-03-01T00:15:15;-1.80;99.90
25983;DHT22;13773;48.868;10.730;2023-03-01T00:17:41;-1.90;99.90
25983;DHT22;13773;48.868;10.730;2023-03-01T00:20:07;-1.80;99.90
25983;DHT22;13773;48.868;10.730;2023-03-01T00:22:36;-1.70;99.90
25983;DHT22;13773;48.868;10.730;2023-03-01T00:25:02;-1.80;99.90
25983;DHT22;13773;48.868;10.730;2023-03-01T00:27:27;-1.70;99.90
25983;DHT22;13773;48.868;10.730;2023-03-01T00:29:53;-1.80;99.90
25983;DHT22;13773;48.868;10.730;2023-03-01T00:32:19;-1.70;99.90
25983;DHT22;13773;48.868;10.730;2023-03-01T00:34:44;-1.70;99.90
25983;DHT22;13773;48.868;10.730;2023-03-01T00:37:20;-1.70;99.90
25983;DHT22;13773;48.868;10.730;2023-03-01T00:39:46;-1.70;99.90
25983;DHT22;13773;48.868;10.730;2023-03-01T00:42:12;-1.70;99.90
25983;DHT22;13773;48.868;10.730;2023-03-01T00:44:38;-1.70;99.90
25983;DHT22;13773;48.868;10.730;2023-03-01T00:47:03;-1.70;99.90
25983;DHT22;13773;48.868;10.730;2023-03-01T00:49:29;-1.70;99.90
25983;DHT22;13773;48.868;10.730;2023-03-01T00:51:55;-1.60;99.90
25983;DHT22;13773;48.868;10.730;2023-03-01T00:54:20;-1.60;99.90
25983;DHT22;13773;48.868;10.730;2023-03-01T00:56:49;-1.60;99.90
25983;DHT22;13773;48.868;10.730;2023-03-01T00:59:15;-1.60;99.90
25983;DHT22;13773;48.868;10.730;2023-03-01T01:01:40;-1.50;99.90
25983;DHT22;13773;48.868;10.730;2023-03-01T01:04:10;-1.60;99.90
25983;DHT22;13773;48.868;10.730;2023-03-01T01:06:38;-1.50;99.90
25983;DHT22;13773;48.868;10.730;2023-03-01T01:09:06;-1.40;99.90
25983;DHT22;13773;48.868;10.730;2023-03-01T01:11:33;-1.50;99.90
25983;DHT22;13773;48.868;10.730;2023-03-01T01:13:59;-1.50;99.90
25983;DHT22;13773;48.868;10.730;2023-03-01T01:16:26;-1.50;99.90
25983;DHT22;13773;48.868;10.730;2023-03-01T01:18:53;-1.50;99.90
25983;DHT22;13773;48.868;10.730;2023-03-01T01:21:20;-1.50;99.90
25983;DHT22;13773;48.868;10.730;2023-03-01T01:23:47;-1.50;99.90
25983;DHT22;13773;48.868;10.730;2023-03-01T01:26:16;-1.40;99.90
25983;DHT22;13773;48.868;10.730;2023-03-01T01:28:42;-1.40;99.90
25983;DHT22;13773;48.868;10.730;2023-03-01T01:31:08;-1.50;99.90
25983;DHT22;13773;48.868;10.730;2023-03-01T01:33:34;-1.40;99.90
25983;DHT22;13773;48.868;10.730;2023-03-01T01:36:00;-1.40;99.90
25983;DHT22;13773;48.868;10.730;2023-03-01T01:38:26;-1.50;99.90
25983;DHT22;13773;48.868;10.730;2023-03-01T01:40:52;-1.40;99.90
25983;DHT22;13773;48.868;10.730;2023-03-01T01:43:29;-1.40;99.90
25983;DHT22;13773;48.868;10.730;2023-03-01T01:46:12;-1.50;99.90
25983;DHT22;13773;48.868;10.730;2023-03-01T01:48:43;-1.50;99.90
25983;DHT22;13773;48.868;10.730;2023-03-01T01:51:13;-1.50;99.90
25983;DHT22;13773;48.868;10.730;2023-03-01T01:53:40;1.00;99.90
25983;DHT22;13773;48.868;10.730;2023-03-01T01:56:08;-1.50;99.90
25983;DHT22;13773;48.868;10.730;2023-03-01T01:58:36;-1.50;99.90
25983;DHT22;13773;48.868;10.730;2023-03-01T02:01:03;-1.50;99.90
25983;DHT22;13773;48.868;10.730;2023-03-01T02:03:31;-1.50;99.90
25983;DHT22;13773;48.868;10.730;2023-03-01T02:08:44;-1.50;99.90
25983;DHT22;13773;48.868;10.730;2023-03-01T02:11:12;-1.50;99.90
25983;DHT22;13773;48.868;10.730;2023-03-01T02:13:40;-1.50;99.90
25983;DHT22;13773;48.868;10.730;2023-03-01T02:16:11;-1.50;99.90
25983;DHT22;13773;48.868;10.730;2023-03-01T02:18:39;-1.50;99.90
25983;DHT22;13773;48.868;10.730;2023-03-01T02:23:31;-1.60;99.90
25983;DHT22;13773;48.868;10.730;2023-03-01T02:26:40;-1.60;99.90
25983;DHT22;13773;48.868;10.730;2023-03-01T02:29:07;-1.60;99.90
25983;DHT22;13773;48.868;10.730;2023-03-01T02:31:33;-1.60;99.90
25983;DHT22;13773;48.868;10.730;2023-03-01T02:34:10;-1.60;99.90
25983;DHT22;13773;48.868;10.730;2023-03-01T02:39:15;-1.70;99.90
25983;DHT22;13773;48.868;10.730;2023-03-01T02:41:46;-1.60;99.90
25983;DHT22;13773;48.868;10.730;2023-03-01T02:44:13;-1.60;99.90
25983;DHT22;13773;48.868;10.730;2023-03-01T02:46:44;-1.60;99.90
25983;DHT22;13773;48.868;10.730;2023-03-01T02:49:37;-1.60;99.90
25983;DHT22;13773;48.868;10.730;2023-03-01T02:57:10;-1.70;99.90
25983;DHT22;13773;48.868;10.730;2023-03-01T02:59:37;-1.70;99.90
25983;DHT22;13773;48.868;10.730;2023-03-01T03:02:19;-1.80;99.90
25983;DHT22;13773;48.868;10.730;2023-03-01T03:04:47;-1.80;99.90
25983;DHT22;13773;48.868;10.730;2023-03-01T03:07:12;-1.70;99.90
25983;DHT22;13773;48.868;10.730;2023-03-01T03:09:38;-1.80;99.90
25983;DHT22;13773;48.868;10.730;2023-03-01T03:12:04;-1.80;99.90
25983;DHT22;13773;48.868;10.730;2023-03-01T03:14:30;-1.80;99.90
25983;DHT22;13773;48.868;10.730;2023-03-01T03:17:00;-1.80;99.90
25983;DHT22;13773;48.868;10.730;2023-03-01T03:19:26;-1.90;99.90
25983;DHT22;13773;48.868;10.730;2023-03-01T03:21:51;-1.90;99.90
25983;DHT22;13773;48.868;10.730;2023-03-01T03:24:17;-1.90;99.90
25983;DHT22;13773;48.868;10.730;2023-03-01T03:26:43;-1.90;99.90
25983;DHT22;13773;48.868;10.730;2023-03-01T03:29:09;-1.90;99.90
25983;DHT22;13773;48.868;10.730;2023-03-01T03:31:34;-1.80;99.90
25983;DHT22;13773;48.868;10.730;2023-03-01T03:34:00;-1.80;99.90
25983;DHT22;13773;48.868;10.730;2023-03-01T03:36:26;-1.80;99.90
25983;DHT22;13773;48.868;10.730;2023-03-01T03:38:52;-1.80;99.90
25983;DHT22;13773;48.868;10.730;2023-03-01T03:41:17;-1.70;99.90
25983;DHT22;13773;48.868;10.730;2023-03-01T03:43:44;-1.70;99.90
25983;DHT22;13773;48.868;10.730;2023-03-01T03:46:10;-1.80;99.90
25983;DHT22;13773;48.868;10.730;2023-03-01T03:48:41;-1.80;99.90
25983;DHT22;13773;48.868;10.730;2023-03-01T03:51:13;-1.80;99.90
25983;DHT22;13773;48.868;10.730;2023-03-01T03:53:39;-1.80;99.90
25983;DHT22;13773;48.868;10.730;2023-03-01T03:56:06;-1.90;99.90
25983;DHT22;13773;48.868;10.730;2023-03-01T03:58:32;-1.90;99.90
25983;DHT22;13773;48.868;10.730;2023-03-01T04:00:58;-1.90;99.90
25983;DHT22;13773;48.868;10.730;2023-03-01T04:03:25;-1.90;99.90
25983;DHT22;13773;48.868;10.730;2023-03-01T04:05:51;-1.90;99.90
25983;DHT22;13773;48.868;10.730;2023-03-01T04:08:21;-1.90;99.90
25983;DHT22;13773;48.868;10.730;2023-03-01T04:10:52;-2.00;99.90
25983;DHT22;13773;48.868;10.730;2023-03-01T04:13:21;-2.10;99.90
25983;DHT22;13773;48.868;10.730;2023-03-01T04:15:51;-2.10;99.90
25983;DHT22;13773;48.868;10.730;2023-03-01T04:18:18;-2.20;99.90
25983;DHT22;13773;48.868;10.730;2023-03-01T04:20:45;-2.30;99.90
25983;DHT22;13773;48.868;10.730;2023-03-01T04:23:13;-2.30;99.90
25983;DHT22;13773;48.868;10.730;2023-03-01T04:25:56;-2.30;99.90
25983;DHT22;13773;48.868;10.730;2023-03-01T04:28:24;-2.50;99.90
25983;DHT22;13773;48.868;10.730;2023-03-01T04:30:51;-2.50;99.90
25983;DHT22;13773;48.868;10.730;2023-03-01T04:33:17;-2.60;99.90
25983;DHT22;13773;48.868;10.730;2023-03-01T04:35:43;-2.60;99.90
25983;DHT22;13773;48.868;10.730;2023-03-01T04:38:09;-2.60;99.90
25983;DHT22;13773;48.868;10.730;2023-03-01T04:40:36;-2.60;99.90
25983;DHT22;13773;48.868;10.730;2023-03-01T04:43:02;-2.60;99.90
25983;DHT22;13773;48.868;10.730;2023-03-01T04:45:28;-2.60;99.90
25983;DHT22;13773;48.868;10.730;2023-03-01T04:47:54;-2.70;99.90
25983;DHT22;13773;48.868;10.730;2023-03-01T04:50:20;-2.80;99.90
25983;DHT22;13773;48.868;10.730;2023-03-01T04:52:47;-2.80;99.90
25983;DHT22;13773;48.868;10.730;2023-03-01T04:55:13;-2.90;99.90
25983;DHT22;13773;48.868;10.730;2023-03-01T04:57:39;-2.90;99.90
25983;DHT22;13773;48.868;10.730;2023-03-01T05:00:07;-3.10;99.90
25983;DHT22;13773;48.868;10.730;2023-03-01T05:02:53;-3.10;99.90
25983;DHT22;13773;48.868;10.730;2023-03-01T05:05:41;-3.10;99.90
25983;DHT22;13773;48.868;10.730;2023-03-01T05:08:07;-3.10;99.90
25983;DHT22;13773;48.868;10.730;2023-03-01T05:10:35;-3.10;99.90
25983;DHT22;13773;48.868;10.730;2023-03-01T05:13:03;-3.20;99.90
25983;DHT22;13773;48.868;10.730;2023-03-01T05:15:30;-3.20;99.90
25983;DHT22;13773;48.868;10.730;2023-03-01T05:17:57;-3.30;99.90
25983;DHT22;13773;48.868;10.730;2023-03-01T05:20:28;-3.30;99.90
25983;DHT22;13773;48.868;10.730;2023-03-01T05:22:59;-3.20;99.90
25983;DHT22;13773;48.868;10.730;2023-03-01T05:25:26;-3.30;99.90
25983;DHT22;13773;48.868;10.730;2023-03-01T05:27:52;-3.30;99.90
25983;DHT22;13773;48.868;10.730;2023-03-01T05:30:17;-3.30;99.90
25983;DHT22;13773;48.868;10.730;2023-03-01T05:32:46;-3.20;99.90
25983;DHT22;13773;48.868;10.730;2023-03-01T05:35:13;-3.20;99.90
25983;DHT22;13773;48.868;10.730;2023-03-01T05:37:41;-3.20;99.90
25983;DHT22;13773;48.868;10.730;2023-03-01T05:40:08;-3.20;99.90
25983;DHT22;13773;48.868;10.730;2023-03-01T05:42:44;-3.20;99.90
25983;DHT22;13773;48.868;10.730;2023-03-01T05:45:11;-3.30;99.90
25983;DHT22;13773;48.868;10.730;2023-03-01T05:47:41;-3.30;99.90
25983;DHT22;13773;48.868;10.730;2023-03-01T05:50:15;-3.30;99.90
25983;DHT22;13773;48.868;10.730;2023-03-01T05:52:49;-3.30;99.90
25983;DHT22;13773;48.868;10.730;2023-03-01T05:55:20;-3.30;99.90
25983;DHT22;13773;48.868;10.730;2023-03-01T05:57:46;-3.30;99.90
25983;DHT22;13773;48.868;10.730;2023-03-01T06:00:14;-3.30;99.90
25983;DHT22;13773;48.868;10.730;2023-03-01T06:02:40;-3.20;99.90
25983;DHT22;13773;48.868;10.730;2023-03-01T06:05:08;-3.40;99.90
25983;DHT22;13773;48.868;10.730;2023-03-01T06:07:34;-3.40;99.90
25983;DHT22;13773;48.868;10.730;2023-03-01T06:10:00;-3.40;99.90
25983;DHT22;13773;48.868;10.730;2023-03-01T06:12:29;-3.40;99.90
25983;DHT22;13773;48.868;10.730;2023-03-01T06:14:55;-3.40;99.90
25983;DHT22;13773;48.868;10.730;2023-03-01T06:17:21;-3.40;99.90
25983;DHT22;13773;48.868;10.730;2023-03-01T06:19:47;-3.40;99.90
25983;DHT22;13773;48.868;10.730;2023-03-01T06:22:12;-3.30;99.90
25983;DHT22;13773;48.868;10.730;2023-03-01T06:24:38;-3.30;99.90
25983;DHT22;13773;48.868;10.730;2023-03-01T06:27:04;-3.40;99.90
25983;DHT22;13773;48.868;10.730;2023-03-01T06:29:30;-3.30;99.90
25983;DHT22;13773;48.868;10.730;2023-03-01T06:31:56;-3.30;99.90
25983;DHT22;13773;48.868;10.730;2023-03-01T06:34:21;-3.30;99.90
25983;DHT22;13773;48.868;10.730;2023-03-01T06:36:47;-3.30;99.90
25983;DHT22;13773;48.868;10.730;2023-03-01T06:39:13;-3.30;99.90
25983;DHT22;13773;48.868;10.730;2023-03-01T06:41:38;-3.20;99.90
25983;DHT22;13773;48.868;10.730;2023-03-01T06:44:04;-3.20;99.90
25983;DHT22;13773;48.868;10.730;2023-03-01T06:46:30;-3.20;99.90
25983;DHT22;13773;48.868;10.730;2023-03-01T06:48:56;-3.10;99.90
25983;DHT22;13773;48.868;10.730;2023-03-01T06:51:21;-3.10;99.90
25983;DHT22;13773;48.868;10.730;2023-03-01T06:53:47;-3.10;99.90
25983;DHT22;13773;48.868;10.730;2023-03-01T06:56:13;-3.10;99.90
25983;DHT22;13773;48.868;10.730;2023-03-01T06:58:38;-3.00;99.90
25983;DHT22;13773;48.868;10.730;2023-03-01T07:01:08;-3.00;99.90
25983;DHT22;13773;48.868;10.730;2023-03-01T07:03:34;-3.00;99.90
25983;DHT22;13773;48.868;10.730;2023-03-01T07:06:00;-2.90;99.90
25983;DHT22;13773;48.868;10.730;2023-03-01T07:08:25;-2.90;99.90
25983;DHT22;13773;48.868;10.730;2023-03-01T07:10:58;-2.90;99.90
25983;DHT22;13773;48.868;10.730;2023-03-01T07:13:24;-2.80;99.90
25983;DHT22;13773;48.868;10.730;2023-03-01T07:15:50;-2.80;99.90
25983;DHT22;13773;48.868;10.730;2023-03-01T07:18:16;-2.80;99.90
25983;DHT22;13773;48.868;10.730;2023-03-01T07:20:41;-2.70;99.90
25983;DHT22;13773;48.868;10.730;2023-03-01T07:23:07;-2.70;99.90
25983;DHT22;13773;48.868;10.730;2023-03-01T07:25:33;-2.70;99.90
25983;DHT22;13773;48.868;10.730;2023-03-01T07:27:59;-2.60;99.90
25983;DHT22;13773;48.868;10.730;2023-03-01T07:30:25;-2.60;99.90
25983;DHT22;13773;48.868;10.730;2023-03-01T07:32:57;-2.50;99.90
25983;DHT22;13773;48.868;10.730;2023-03-01T07:35:25;-2.50;99.90
25983;DHT22;13773;48.868;10.730;2023-03-01T07:37:52;-2.40;99.90
25983;DHT22;13773;48.868;10.730;2023-03-01T07:40:18;-2.40;99.90
25983;DHT22;13773;48.868;10.730;2023-03-01T07:42:43;-2.40;99.90
25983;DHT22;13773;48.868;10.730;2023-03-01T07:45:09;-2.20;99.90
25983;DHT22;13773;48.868;10.730;2023-03-01T07:47:35;-2.20;99.90
25983;DHT22;13773;48.868;10.730;2023-03-01T07:50:02;-2.20;99.90
25983;DHT22;13773;48.868;10.730;2023-03-01T07:52:28;-2.10;99.90
25983;DHT22;13773;48.868;10.730;2023-03-01T07:54:54;-2.00;99.90
25983;DHT22;13773;48.868;10.730;2023-03-01T07:57:19;-2.00;99.90
25983;DHT22;13773;48.868;10.730;2023-03-01T07:59:45;-1.90;99.90
25983;DHT22;13773;48.868;10.730;2023-03-01T08:02:11;-1.90;99.90
25983;DHT22;13773;48.868;10.730;2023-03-01T08:04:37;-1.90;99.90
25983;DHT22;13773;48.868;10.730;2023-03-01T08:07:05;-1.80;99.90
25983;DHT22;13773;48.868;10.730;2023-03-01T08:09:30;-1.80;99.90
25983;DHT22;13773;48.868;10.730;2023-03-01T08:11:57;-1.70;99.90
25983;DHT22;13773;48.868;10.730;2023-03-01T08:14:25;-1.70;99.90
25983;DHT22;13773;48.868;10.730;2023-03-01T08:16:50;-1.50;99.90
25983;DHT22;13773;48.868;10.730;2023-03-01T08:19:16;-1.40;99.90
25983;DHT22;13773;48.868;10.730;2023-03-01T08:21:42;-1.40;99.90
25983;DHT22;13773;48.868;10.730;2023-03-01T08:24:08;-1.30;99.90
25983;DHT22;13773;48.868;10.730;2023-03-01T08:26:36;-1.30;99.90
25983;DHT22;13773;48.868;10.730;2023-03-01T08:29:02;-1.20;99.90
25983;DHT22;13773;48.868;10.730;2023-03-01T08:31:34;-1.00;99.90
25983;DHT22;13773;48.868;10.730;2023-03-01T08:34:06;-0.90;99.90
25983;DHT22;13773;48.868;10.730;2023-03-01T08:36:36;-0.90;99.90
25983;DHT22;13773;48.868;10.730;2023-03-01T08:39:03;-0.70;99.90
25983;DHT22;13773;48.868;10.730;2023-03-01T08:41:29;-0.60;99.90
25983;DHT22;13773;48.868;10.730;2023-03-01T08:43:55;-0.40;99.90
25983;DHT22;13773;48.868;10.730;2023-03-01T08:46:35;-0.30;99.90
25983;DHT22;13773;48.868;10.730;2023-03-01T08:49:04;-0.20;99.90
25983;DHT22;13773;48.868;10.730;2023-03-01T08:51:31;0.00;99.90
25983;DHT22;13773;48.868;10.730;2023-03-01T08:54:12;0.10;99.90
25983;DHT22;13773;48.868;10.730;2023-03-01T08:56:38;0.20;99.90
25983;DHT22;13773;48.868;10.730;2023-03-01T08:59:03;0.30;99.90
25983;DHT22;13773;48.868;10.730;2023-03-01T09:01:29;0.40;99.90
25983;DHT22;13773;48.868;10.730;2023-03-01T09:03:55;0.30;99.90
25983;DHT22;13773;48.868;10.730;2023-03-01T09:06:21;0.40;99.90
25983;DHT22;13773;48.868;10.730;2023-03-01T09:08:48;0.60;99.90
25983;DHT22;13773;48.868;10.730;2023-03-01T09:11:18;0.80;99.90
25983;DHT22;13773;48.868;10.730;2023-03-01T09:13:45;0.90;99.90
25983;DHT22;13773;48.868;10.730;2023-03-01T09:16:12;1.00;99.90
25983;DHT22;13773;48.868;10.730;2023-03-01T09:18:38;1.10;99.90
25983;DHT22;13773;48.868;10.730;2023-03-01T09:23:38;1.40;99.90
25983;DHT22;13773;48.868;10.730;2023-03-01T09:26:13;1.50;99.90
25983;DHT22;13773;48.868;10.730;2023-03-01T09:28:40;1.60;99.90
25983;DHT22;13773;48.868;10.730;2023-03-01T09:31:09;1.60;99.90
25983;DHT22;13773;48.868;10.730;2023-03-01T09:33:38;1.80;99.90
25983;DHT22;13773;48.868;10.730;2023-03-01T09:36:06;2.00;99.90
25983;DHT22;13773;48.868;10.730;2023-03-01T09:38:32;1.00;99.90
25983;DHT22;13773;48.868;10.730;2023-03-01T09:41:02;1.90;99.90
25983;DHT22;13773;48.868;10.730;2023-03-01T09:46:09;2.30;99.90
25983;DHT22;13773;48.868;10.730;2023-03-01T09:48:44;2.40;99.90
25983;DHT22;13773;48.868;10.730;2023-03-01T09:51:18;2.30;99.90
25983;DHT22;13773;48.868;10.730;2023-03-01T09:53:45;2.30;99.90
25983;DHT22;13773;48.868;10.730;2023-03-01T09:56:45;2.40;99.90
25983;DHT22;13773;48.868;10.730;2023-03-01T10:01:55;2.50;99.90
25983;DHT22;13773;48.868;10.730;2023-03-01T10:04:46;2.60;99.90
25983;DHT22;13773;48.868;10.730;2023-03-01T10:09:50;2.80;99.90
25983;DHT22;13773;48.868;10.730;2023-03-01T10:12:22;2.80;99.90
25983;DHT22;13773;48.868;10.730;2023-03-01T10:15:14;2.80;99.90
25983;DHT22;13773;48.868;10.730;2023-03-01T10:17:53;2.90;99.90
25983;DHT22;13773;48.868;10.730;2023-03-01T10:20:26;2.90;99.90
25983;DHT22;13773;48.868;10.730;2023-03-01T10:22:52;3.00;99.90
25983;DHT22;13773;48.868;10.730;2023-03-01T10:28:39;3.10;99.90
25983;DHT22;13773;48.868;10.730;2023-03-01T10:31:01;3.20;99.90
25983;DHT22;13773;48.868;10.730;2023-03-01T10:33:30;3.20;99.90
25983;DHT22;13773;48.868;10.730;2023-03-01T10:35:56;3.40;99.90
25983;DHT22;13773;48.868;10.730;2023-03-01T10:38:22;3.60;99.90
25983;DHT22;13773;48.868;10.730;2023-03-01T10:41:05;3.70;99.90
25983;DHT22;13773;48.868;10.730;2023-03-01T10:43:48;3.70;99.90
25983;DHT22;13773;48.868;10.730;2023-03-01T10:46:33;3.70;99.90
25983;DHT22;13773;48.868;10.730;2023-03-01T10:49:21;3.60;99.90
25983;DHT22;13773;48.868;10.730;2023-03-01T10:51:49;3.80;99.90
25983;DHT22;13773;48.868;10.730;2023-03-01T10:56:54;3.70;99.90
25983;DHT22;13773;48.868;10.730;2023-03-01T10:59:35;3.80;99.90
25983;DHT22;13773;48.868;10.730;2023-03-01T11:02:22;3.90;99.90
25983;DHT22;13773;48.868;10.730;2023-03-01T11:05:00;3.70;99.90
25983;DHT22;13773;48.868;10.730;2023-03-01T11:07:26;4.00;99.90
25983;DHT22;13773;48.868;10.730;2023-03-01T11:09:52;4.10;99.90
25983;DHT22;13773;48.868;10.730;2023-03-01T11:12:18;4.10;99.90
25983;DHT22;13773;48.868;10.730;2023-03-01T11:14:51;4.30;99.90
25983;DHT22;13773;48.868;10.730;2023-03-01T11:17:22;4.40;99.90
25983;DHT22;13773;48.868;10.730;2023-03-01T11:22:49;4.30;99.90
25983;DHT22;13773;48.868;10.730;2023-03-01T11:25:19;4.30;99.90
25983;DHT22;13773;48.868;10.730;2023-03-01T11:27:45;4.50;99.90
25983;DHT22;13773;48.868;10.730;2023-03-01T11:38:35;4.70;99.90
25983;DHT22;13773;48.868;10.730;2023-03-01T11:41:10;4.70;99.90
25983;DHT22;13773;48.868;10.730;2023-03-01T11:44:14;4.70;99.90
25983;DHT22;13773;48.868;10.730;2023-03-01T12:09:23;5.10;99.90
25983;DHT22;13773;48.868;10.730;2023-03-01T12:23:35;5.20;99.90
25983;DHT22;13773;48.868;10.730;2023-03-01T12:34:39;5.60;99.90
25983;DHT22;13773;48.868;10.730;2023-03-01T12:40:27;5.70;99.90
25983;DHT22;13773;48.868;10.730;2023-03-01T12:43:33;5.50;99.90
25983;DHT22;13773;48.868;10.730;2023-03-01T12:49:14;5.50;99.90
25983;DHT22;13773;48.868;10.730;2023-03-01T12:51:46;5.70;99.90
25983;DHT22;13773;48.868;10.730;2023-03-01T12:54:16;5.70;99.90
25983;DHT22;13773;48.868;10.730;2023-03-01T12:56:45;5.80;99.90
25983;DHT22;13773;48.868;10.730;2023-03-01T13:09:51;6.00;99.90
25983;DHT22;13773;48.868;10.730;2023-03-01T13:17:54;6.10;99.90
25983;DHT22;13773;48.868;10.730;2023-03-01T13:28:46;6.10;99.90
25983;DHT22;13773;48.868;10.730;2023-03-01T13:33:47;6.20;99.90
25983;DHT22;13773;48.868;10.730;2023-03-01T13:44:33;6.40;99.90
25983;DHT22;13773;48.868;10.730;2023-03-01T13:50:00;6.40;99.90
25983;DHT22;13773;48.868;10.730;2023-03-01T13:52:44;6.20;99.90
25983;DHT22;13773;48.868;10.730;2023-03-01T13:55:21;6.50;99.90
25983;DHT22;13773;48.868;10.730;2023-03-01T13:57:52;6.50;99.90
25983;DHT22;13773;48.868;10.730;2023-03-01T14:03:01;6.50;99.90
25983;DHT22;13773;48.868;10.730;2023-03-01T14:05:27;6.60;99.90
25983;DHT22;13773;48.868;10.730;2023-03-01T14:07:54;6.60;99.90
25983;DHT22;13773;48.868;10.730;2023-03-01T14:10:20;6.40;99.90
25983;DHT22;13773;48.868;10.730;2023-03-01T14:13:01;6.40;99.90
25983;DHT22;13773;48.868;10.730;2023-03-01T14:15:38;6.50;99.90
25983;DHT22;13773;48.868;10.730;2023-03-01T14:20:49;6.70;99.90
25983;DHT22;13773;48.868;10.730;2023-03-01T14:23:22;6.80;99.90
25983;DHT22;13773;48.868;10.730;2023-03-01T14:25:55;6.90;99.90
25983;DHT22;13773;48.868;10.730;2023-03-01T14:28:30;6.80;99.90
25983;DHT22;13773;48.868;10.730;2023-03-01T14:31:00;6.90;99.90
25983;DHT22;13773;48.868;10.730;2023-03-01T14:36:14;6.80;99.90
25983;DHT22;13773;48.868;10.730;2023-03-01T14:38:44;6.80;99.90
25983;DHT22;13773;48.868;10.730;2023-03-01T14:41:19;6.90;99.90
25983;DHT22;13773;48.868;10.730;2023-03-01T14:44:16;6.70;99.90
25983;DHT22;13773;48.868;10.730;2023-03-01T14:46:44;6.90;99.90
25983;DHT22;13773;48.868;10.730;2023-03-01T14:49:19;7.00;99.90
25983;DHT22;13773;48.868;10.730;2023-03-01T14:52:05;7.20;99.90
25983;DHT22;13773;48.868;10.730;2023-03-01T14:54:40;7.10;99.90
25983;DHT22;13773;48.868;10.730;2023-03-01T14:57:15;7.00;99.90
25983;DHT22;13773;48.868;10.730;2023-03-01T14:59:41;7.00;99.90
25983;DHT22;13773;48.868;10.730;2023-03-01T15:02:16;7.10;99.90
25983;DHT22;13773;48.868;10.730;2023-03-01T15:04:45;7.20;99.90
25983;DHT22;13773;48.868;10.730;2023-03-01T15:07:13;7.20;99.90
25983;DHT22;13773;48.868;10.730;2023-03-01T15:09:40;7.10;99.90
25983;DHT22;13773;48.868;10.730;2023-03-01T15:14:54;7.10;99.90
25983;DHT22;13773;48.868;10.730;2023-03-01T15:17:37;6.90;99.90
25983;DHT22;13773;48.868;10.730;2023-03-01T15:20:17;6.90;99.90
25983;DHT22;13773;48.868;10.730;2023-03-01T15:22:46;6.90;99.90
25983;DHT22;13773;48.868;10.730;2023-03-01T15:25:19;6.90;99.90
25983;DHT22;13773;48.868;10.730;2023-03-01T15:27:47;6.80;99.90
25983;DHT22;13773;48.868;10.730;2023-03-01T15:30:21;6.90;99.90
25983;DHT22;13773;48.868;10.730;2023-03-01T15:32:47;6.90;99.90
25983;DHT22;13773;48.868;10.730;2023-03-01T15:35:42;6.90;99.90
25983;DHT22;13773;48.868;10.730;2023-03-01T15:40:54;7.00;99.90
25983;DHT22;13773;48.868;10.730;2023-03-01T15:43:47;6.80;99.90
25983;DHT22;13773;48.868;10.730;2023-03-01T15:46:21;6.90;99.90
25983;DHT22;13773;48.868;10.730;2023-03-01T15:48:50;6.80;99.90
25983;DHT22;13773;48.868;10.730;2023-03-01T15:51:21;6.80;99.90
25983;DHT22;13773;48.868;10.730;2023-03-01T15:53:51;6.70;99.90
25983;DHT22;13773;48.868;10.730;2023-03-01T15:56:18;6.70;99.90
25983;DHT22;13773;48.868;10.730;2023-03-01T15:58:44;6.60;99.90
25983;DHT22;13773;48.868;10.730;2023-03-01T16:01:17;6.60;99.90
25983;DHT22;13773;48.868;10.730;2023-03-01T16:03:43;6.60;99.90
25983;DHT22;13773;48.868;10.730;2023-03-01T16:06:10;6.50;99.90
25983;DHT22;13773;48.868;10.730;2023-03-01T16:08:39;6.40;99.90
25983;DHT22;13773;48.868;10.730;2023-03-01T16:11:14;6.30;99.90
25983;DHT22;13773;48.868;10.730;2023-03-01T16:13:40;6.20;99.90
25983;DHT22;13773;48.868;10.730;2023-03-01T16:16:05;6.10;99.90
25983;DHT22;13773;48.868;10.730;2023-03-01T16:18:32;6.00;99.90
25983;DHT22;13773;48.868;10.730;2023-03-01T16:20:58;6.00;99.90
25983;DHT22;13773;48.868;10.730;2023-03-01T16:23:24;5.90;99.90
25983;DHT22;13773;48.868;10.730;2023-03-01T16:25:51;5.80;99.90
25983;DHT22;13773;48.868;10.730;2023-03-01T16:28:16;5.80;99.90
25983;DHT22;13773;48.868;10.730;2023-03-01T16:30:46;5.70;99.90
25983;DHT22;13773;48.868;10.730;2023-03-01T16:33:13;5.60;99.90
25983;DHT22;13773;48.868;10.730;2023-03-01T16:35:40;5.50;99.90
25983;DHT22;13773;48.868;10.730;2023-03-01T16:38:06;5.40;99.90
25983;DHT22;13773;48.868;10.730;2023-03-01T16:40:31;5.40;99.90
25983;DHT22;13773;48.868;10.730;2023-03-01T16:42:58;5.20;99.90
25983;DHT22;13773;48.868;10.730;2023-03-01T16:45:28;5.10;99.90
25983;DHT22;13773;48.868;10.730;2023-03-01T16:47:54;4.90;99.90
25983;DHT22;13773;48.868;10.730;2023-03-01T16:50:20;4.80;99.90
25983;DHT22;13773;48.868;10.730;2023-03-01T16:52:45;4.80;99.90
25983;DHT22;13773;48.868;10.730;2023-03-01T16:55:11;4.70;99.90
25983;DHT22;13773;48.868;10.730;2023-03-01T16:57:37;4.60;99.90
25983;DHT22;13773;48.868;10.730;2023-03-01T17:00:05;4.60;99.90
25983;DHT22;13773;48.868;10.730;2023-03-01T17:02:33;4.50;99.90
25983;DHT22;13773;48.868;10.730;2023-03-01T17:04:59;4.50;99.90
25983;DHT22;13773;48.868;10.730;2023-03-01T17:07:25;4.40;99.90
25983;DHT22;13773;48.868;10.730;2023-03-01T17:09:51;4.20;99.90
25983;DHT22;13773;48.868;10.730;2023-03-01T17:12:17;4.10;99.90
25983;DHT22;13773;48.868;10.730;2023-03-01T17:14:42;4.00;99.90
25983;DHT22;13773;48.868;10.730;2023-03-01T17:17:10;4.00;99.90
25983;DHT22;13773;48.868;10.730;2023-03-01T17:19:36;3.90;99.90
25983;DHT22;13773;48.868;10.730;2023-03-01T17:22:07;3.90;99.90
25983;DHT22;13773;48.868;10.730;2023-03-01T17:24:34;3.80;99.90
25983;DHT22;13773;48.868;10.730;2023-03-01T17:27:00;3.80;99.90
25983;DHT22;13773;48.868;10.730;2023-03-01T17:29:26;3.80;99.90
25983;DHT22;13773;48.868;10.730;2023-03-01T17:31:52;3.80;99.90
25983;DHT22;13773;48.868;10.730;2023-03-01T17:34:20;3.70;99.90
25983;DHT22;13773;48.868;10.730;2023-03-01T17:36:45;3.60;99.90
25983;DHT22;13773;48.868;10.730;2023-03-01T17:39:12;3.50;99.90
25983;DHT22;13773;48.868;10.730;2023-03-01T17:41:38;3.40;99.90
25983;DHT22;13773;48.868;10.730;2023-03-01T17:44:03;3.30;99.90
25983;DHT22;13773;48.868;10.730;2023-03-01T17:46:29;3.40;99.90
25983;DHT22;13773;48.868;10.730;2023-03-01T17:48:55;3.20;99.90
25983;DHT22;13773;48.868;10.730;2023-03-01T17:51:21;3.20;99.90
25983;DHT22;13773;48.868;10.730;2023-03-01T17:53:46;3.10;99.90
25983;DHT22;13773;48.868;10.730;2023-03-01T17:56:12;3.10;99.90